createdAt,value
2022-08-07T00:01:44.288Z,101909.91
2022-08-07T00:05:01.128Z,101910.54
2022-08-07T00:07:40.465Z,101908.46
2022-08-07T00:10:47.609Z,101912.27
2022-08-07T00:13:51.449Z,101915.17
2022-08-07T00:16:50.353Z,101914.70
2022-08-07T00:20:00.903Z,101916.11
2022-08-07T00:23:08.132Z,101918.41
2022-08-07T00:26:01.502Z,101919.72
2022-08-07T00:29:43.355Z,101918.09
2022-08-07T00:32:48.221Z,101918.12
2022-08-07T00:35:50.302Z,101918.11
2022-08-07T00:38:42.074Z,101920.39
2022-08-07T00:42:06.686Z,101918.77
2022-08-07T00:44:45.523Z,101923.77
2022-08-07T00:48:08.106Z,101917.88
2022-08-07T00:50:50.367Z,101920.79
2022-08-07T00:53:39.128Z,101922.85
2022-08-07T00:56:18.901Z,101925.53
2022-08-07T00:59:17.275Z,101925.90
2022-08-07T01:02:14.174Z,101924.39
2022-08-07T01:05:01.161Z,101924.11
2022-08-07T01:07:36.085Z,101921.11
2022-08-07T01:10:30.102Z,101921.33
2022-08-07T01:13:55.657Z,101923.52
2022-08-07T01:17:25.475Z,101926.23
2022-08-07T01:20:35.377Z,101927.23
2022-08-07T01:23:43.751Z,101926.42
2022-08-07T01:27:04.978Z,101926.65
2022-08-07T01:29:39.693Z,101927.01
2022-08-07T01:32:22.406Z,101927.02
2022-08-07T01:35:02.115Z,101922.72
2022-08-07T01:37:35.577Z,101919.48
2022-08-07T01:40:06.859Z,101920.14
2022-08-07T01:42:56.932Z,101921.90
2022-08-07T01:45:48.458Z,101921.42
2022-08-07T01:48:47.537Z,101922.35
2022-08-07T01:52:24.940Z,101926.51
2022-08-07T01:55:36.287Z,101925.95
2022-08-07T01:58:28.902Z,101922.88
2022-08-07T02:01:59.802Z,101923.98
2022-08-07T02:05:16.069Z,101923.20
2022-08-07T02:08:09.797Z,101918.39
2022-08-07T02:10:58.163Z,101923.77
2022-08-07T02:13:57.393Z,101923.39
2022-08-07T02:16:33.081Z,101928.42
2022-08-07T02:20:07.790Z,101928.54
2022-08-07T02:22:02.863Z,101932.15
2022-08-07T02:25:21.168Z,101930.02
2022-08-07T02:28:27.267Z,101930.91
2022-08-07T02:31:28.049Z,101930.81
2022-08-07T02:34:11.655Z,101932.57
2022-08-07T02:37:01.974Z,101939.92
2022-08-07T02:39:43.457Z,101939.52
2022-08-07T02:42:18.062Z,101936.63
2022-08-07T02:44:51.887Z,101939.63
2022-08-07T02:47:35.060Z,101940.12
2022-08-07T02:50:16.689Z,101941.95
2022-08-07T02:53:15.689Z,101944.12
2022-08-07T02:56:03.997Z,101939.91
2022-08-07T02:58:39.763Z,101943.34
2022-08-07T03:01:40.186Z,101940.73
2022-08-07T03:04:19.483Z,101946.52
2022-08-07T03:06:48.570Z,101949.92
2022-08-07T03:09:41.815Z,101948.72
2022-08-07T03:12:30.867Z,101945.81
2022-08-07T03:15:10.626Z,101951.14
2022-08-07T03:18:20.899Z,101950.49
2022-08-07T03:21:11.380Z,101949.61
2022-08-07T03:24:21.220Z,101949.26
2022-08-07T03:26:36.200Z,101946.80
2022-08-07T03:29:22.203Z,101944.38
2022-08-07T03:31:53.983Z,101948.47
2022-08-07T03:34:29.862Z,101942.58
2022-08-07T03:37:12.184Z,101944.20
2022-08-07T03:39:59.384Z,101939.14
2022-08-07T03:42:51.455Z,101940.15
2022-08-07T03:45:47.808Z,101941.13
2022-08-07T03:48:45.475Z,101943.20
2022-08-07T03:51:47.935Z,101943.14
2022-08-07T03:54:35.253Z,101944.70
2022-08-07T03:58:32.706Z,101947.95
2022-08-07T04:00:37.886Z,101944.78
2022-08-07T04:03:23.702Z,101948.50
2022-08-07T04:05:52.907Z,101949.63
2022-08-07T04:08:32.635Z,101948.41
2022-08-07T04:12:21.296Z,101950.10
2022-08-07T04:14:10.727Z,101946.05
2022-08-07T04:17:05.099Z,101949.53
2022-08-07T04:19:54.362Z,101947.73
2022-08-07T04:22:27.379Z,101945.70
2022-08-07T04:25:24.512Z,101945.86
2022-08-07T04:28:00.885Z,101949.83
2022-08-07T04:31:05.200Z,101954.14
2022-08-07T04:33:59.462Z,101950.20
2022-08-07T04:36:51.670Z,101952.17
2022-08-07T04:39:25.418Z,101955.68
2022-08-07T04:42:28.688Z,101953.37
2022-08-07T04:45:11.745Z,101956.58
2022-08-07T04:48:16.454Z,101955.94
2022-08-07T04:51:19.968Z,101956.27
2022-08-07T04:54:12.366Z,101956.42
2022-08-07T04:58:12.969Z,101955.44
2022-08-07T05:01:01.640Z,101960.16
2022-08-07T05:04:52.928Z,101961.77
2022-08-07T05:08:59.871Z,101965.60
2022-08-07T05:12:02.334Z,101965.77
2022-08-07T05:15:25.959Z,101967.33
2022-08-07T05:18:56.633Z,101966.86
2022-08-07T05:22:00.122Z,101968.05
2022-08-07T05:24:55.734Z,101968.33
2022-08-07T05:28:16.031Z,101968.38
2022-08-07T05:30:55.879Z,101964.54
2022-08-07T05:34:31.978Z,101966.65
2022-08-07T05:38:12.865Z,101962.67
2022-08-07T05:41:25.796Z,101963.75
2022-08-07T05:44:29.310Z,101964.69
2022-08-07T05:47:18.761Z,101968.64
2022-08-07T05:50:45.497Z,101969.63
2022-08-07T05:54:12.475Z,101972.83
2022-08-07T05:56:35.163Z,101973.78
2022-08-07T05:59:57.242Z,101973.59
2022-08-07T06:02:41.793Z,101970.41
2022-08-07T06:05:15.661Z,101972.11
2022-08-07T06:08:14.918Z,101971.45
2022-08-07T06:11:50.347Z,101969.23
2022-08-07T06:15:22.291Z,101966.90
2022-08-07T06:18:19.393Z,101968.02
2022-08-07T06:22:15.777Z,101965.40
2022-08-07T06:24:45.494Z,101964.27
2022-08-07T06:28:07.042Z,101968.07
2022-08-07T06:31:09.487Z,101970.91
2022-08-07T06:34:30.425Z,101970.94
2022-08-07T06:37:46.808Z,101973.43
2022-08-07T06:41:16.590Z,101983.67
2022-08-07T06:44:51.629Z,101976.96
2022-08-07T06:48:06.525Z,101985.91
2022-08-07T06:50:55.032Z,101988.33
2022-08-07T06:55:29.254Z,101988.30
2022-08-07T06:57:57.591Z,101992.16
2022-08-07T07:01:44.155Z,101986.54
2022-08-07T07:06:02.763Z,101986.17
2022-08-07T07:09:59.854Z,101987.05
2022-08-07T07:13:57.808Z,101987.50
2022-08-07T07:17:16.018Z,101984.48
2022-08-07T07:20:37.921Z,101984.08
2022-08-07T07:24:11.190Z,101984.69
2022-08-07T07:28:03.154Z,101978.57
2022-08-07T07:31:59.941Z,101975.14
2022-08-07T07:51:17.979Z,101964.30
2022-08-07T07:55:08.835Z,101969.32
2022-08-07T07:59:00.087Z,101959.17
2022-08-07T08:03:04.570Z,101964.62
2022-08-07T08:06:55.422Z,101952.59
2022-08-07T08:10:47.943Z,101951.08
2022-08-07T08:14:30.857Z,101947.27
2022-08-07T08:18:21.476Z,101940.84
2022-08-07T08:22:12.135Z,101940.90
2022-08-07T08:26:04.585Z,101940.27
2022-08-07T08:29:54.157Z,101940.48
2022-08-07T08:33:49.772Z,101935.23
2022-08-07T08:38:00.466Z,101937.88
2022-08-07T08:42:25.892Z,101937.80
2022-08-07T08:46:27.741Z,101951.55
2022-08-07T08:50:35.267Z,101945.62
2022-08-07T08:54:27.939Z,101944.61
2022-08-07T08:58:24.886Z,101941.13
2022-08-07T09:02:36.727Z,101931.48
2022-08-07T09:06:51.382Z,101932.77
2022-08-07T09:10:44.156Z,101927.84
2022-08-07T09:14:58.730Z,101930.56
2022-08-07T09:19:07.286Z,101929.79
2022-08-07T09:24:34.199Z,101927.09
2022-08-07T09:28:01.021Z,101919.34
2022-08-07T09:31:48.638Z,101918.05
2022-08-07T09:36:09.512Z,101911.91
2022-08-07T09:40:10.875Z,101905.67
2022-08-07T09:44:05.952Z,101894.09
2022-08-07T09:48:19.089Z,101892.54
2022-08-07T09:52:33.336Z,101887.43
2022-08-07T09:56:39.304Z,101885.61
2022-08-07T10:00:19.786Z,101893.35
2022-08-07T10:04:14.362Z,101886.06
2022-08-07T10:08:20.570Z,101887.34
2022-08-07T10:12:26.429Z,101889.14
2022-08-07T10:16:35.222Z,101882.73
2022-08-07T10:20:36.059Z,101872.41
2022-08-07T10:24:50.993Z,101863.38
2022-08-07T10:28:58.767Z,101856.45
2022-08-07T10:32:53.235Z,101849.31
2022-08-07T10:36:51.284Z,101844.84
2022-08-07T10:40:44.060Z,101837.73
2022-08-07T10:44:38.519Z,101833.56
2022-08-07T10:48:35.474Z,101835.45
2022-08-07T10:52:34.145Z,101832.84
2022-08-07T10:56:31.812Z,101832.71
2022-08-07T11:00:39.523Z,101822.16
2022-08-07T11:04:34.934Z,101818.84
2022-08-07T11:08:36.549Z,101820.54
2022-08-07T11:12:32.196Z,101814.73
2022-08-07T11:16:21.969Z,101806.83
2022-08-07T11:20:19.032Z,101806.46
2022-08-07T11:24:23.377Z,101800.96
2022-08-07T11:28:15.370Z,101792.78
2022-08-07T11:32:25.265Z,101786.95
2022-08-07T11:35:59.772Z,101779.13
2022-08-07T11:39:20.232Z,101775.95
2022-08-07T11:43:15.403Z,101773.33
2022-08-07T11:46:56.939Z,101765.96
2022-08-07T11:50:57.742Z,101768.04
2022-08-07T11:55:19.015Z,101768.14
2022-08-07T12:00:11.299Z,101768.41
2022-08-07T12:03:46.905Z,101766.66
2022-08-07T12:07:53.302Z,101762.80
2022-08-07T12:11:43.482Z,101757.34
2022-08-07T12:16:05.836Z,101753.76
2022-08-07T12:20:03.155Z,101748.94
2022-08-07T12:24:05.758Z,101746.75
2022-08-07T12:28:16.595Z,101741.77
2022-08-07T12:32:30.369Z,101740.05
2022-08-07T12:36:14.044Z,101735.30
2022-08-07T12:40:04.863Z,101728.04
2022-08-07T12:44:05.619Z,101713.48
2022-08-07T12:48:28.215Z,101716.11
2022-08-07T12:52:33.876Z,101713.63
2022-08-07T12:56:27.978Z,101711.45
2022-08-07T12:59:59.524Z,101704.33
2022-08-07T13:04:13.556Z,101697.20
2022-08-07T13:08:19.352Z,101695.16
2022-08-07T13:12:27.123Z,101692.60
2022-08-07T13:16:15.984Z,101698.48
2022-08-07T13:20:11.416Z,101696.40
2022-08-07T13:24:04.759Z,101697.38
2022-08-07T13:27:22.311Z,101693.02
2022-08-07T13:31:13.422Z,101685.69
2022-08-07T13:34:50.934Z,101682.46
2022-08-07T13:38:38.822Z,101673.08
2022-08-07T13:42:40.100Z,101668.73
2022-08-07T13:46:32.881Z,101662.89
2022-08-07T13:50:34.004Z,101650.32
2022-08-07T13:54:34.729Z,101648.02
2022-08-07T13:58:28.091Z,101639.16
2022-08-07T14:02:32.160Z,101633.38
2022-08-07T14:06:19.284Z,101636.14
2022-08-07T14:10:20.353Z,101633.63
2022-08-07T14:13:47.737Z,101632.62
2022-08-07T14:18:15.617Z,101623.98
2022-08-07T14:22:04.248Z,101627.02
2022-08-07T14:30:09.345Z,101624.17
2022-08-07T14:34:02.121Z,101621.36
2022-08-07T14:38:05.594Z,101630.59
2022-08-07T14:42:19.618Z,101621.08
2022-08-07T14:45:47.058Z,101616.13
2022-08-07T14:49:57.398Z,101612.24
2022-08-07T14:54:08.893Z,101622.94
2022-08-07T14:58:01.253Z,101615.15
2022-08-07T15:01:42.830Z,101615.41
2022-08-07T15:05:30.572Z,101616.59
2022-08-07T15:09:59.174Z,101609.96
2022-08-07T15:13:35.826Z,101606.90
2022-08-07T15:17:55.041Z,101596.18
2022-08-07T15:21:58.595Z,101593.75
2022-08-07T15:25:36.682Z,101593.34
2022-08-07T15:28:58.408Z,101587.73
2022-08-07T15:33:04.209Z,101592.58
2022-08-07T15:37:04.144Z,101588.62
2022-08-07T15:41:23.969Z,101581.50
2022-08-07T15:45:09.485Z,101581.80
2022-08-07T15:49:11.745Z,101575.67
2022-08-07T15:52:37.410Z,101576.11
2022-08-07T15:56:02.080Z,101571.89
2022-08-07T15:59:39.814Z,101569.90
2022-08-07T16:03:46.065Z,101569.02
2022-08-07T16:08:31.865Z,101575.73
2022-08-07T16:11:46.054Z,101568.38
2022-08-07T16:15:57.335Z,101564.66
2022-08-07T16:19:42.171Z,101559.17
2022-08-07T16:23:54.674Z,101556.91
2022-08-07T16:27:57.198Z,101551.16
2022-08-07T16:31:50.096Z,101544.27
2022-08-07T16:35:58.450Z,101547.79
2022-08-07T16:40:08.654Z,101544.48
2022-08-07T16:44:04.077Z,101541.71
2022-08-07T16:47:56.613Z,101545.27
2022-08-07T16:51:54.129Z,101540.23
2022-08-07T16:55:55.819Z,101539.35
2022-08-07T16:59:49.373Z,101536.72
2022-08-07T17:04:00.183Z,101538.16
2022-08-07T17:08:14.065Z,101544.60
2022-08-07T17:12:04.476Z,101547.19
2022-08-07T17:15:59.245Z,101545.69
2022-08-07T17:20:02.333Z,101542.46
2022-08-07T17:23:47.589Z,101541.70
2022-08-07T17:27:35.514Z,101543.67
2022-08-07T17:31:44.092Z,101543.13
2022-08-07T17:35:55.088Z,101544.45
2022-08-07T17:39:53.084Z,101543.80
2022-08-07T17:43:18.363Z,101550.06
2022-08-07T17:47:08.496Z,101552.10
2022-08-07T17:50:47.210Z,101547.81
2022-08-07T17:54:53.878Z,101553.64
2022-08-07T17:58:56.840Z,101560.13
2022-08-07T18:02:39.405Z,101557.77
2022-08-07T18:06:37.069Z,101559.79
2022-08-07T18:10:31.982Z,101556.04
2022-08-07T18:14:23.643Z,101558.97
2022-08-07T18:19:02.737Z,101561.42
2022-08-07T18:22:40.481Z,101561.89
2022-08-07T18:26:40.895Z,101563.13
2022-08-07T18:30:46.481Z,101563.60
2022-08-07T18:34:40.746Z,101571.38
2022-08-07T18:38:59.263Z,101567.74
2022-08-07T18:42:51.897Z,101579.19
2022-08-07T18:47:00.224Z,101582.33
2022-08-07T18:50:46.127Z,101586.67
2022-08-07T18:54:51.766Z,101588.55
2022-08-07T18:59:03.057Z,101589.55
2022-08-07T19:03:11.872Z,101592.67
2022-08-07T19:07:02.189Z,101592.61
2022-08-07T19:10:23.341Z,101601.88
2022-08-07T19:14:20.358Z,101609.09
2022-08-07T19:18:02.455Z,101606.73
2022-08-07T19:22:04.301Z,101607.17
2022-08-07T19:26:21.866Z,101600.57
2022-08-07T19:31:05.967Z,101603.45
2022-08-07T19:34:00.980Z,101601.82
2022-08-07T19:37:47.297Z,101602.43
2022-08-07T19:41:39.345Z,101605.38
2022-08-07T19:46:08.008Z,101607.00
2022-08-07T19:49:57.844Z,101606.64
2022-08-07T19:54:31.421Z,101611.52
2022-08-07T19:58:13.206Z,101607.77
2022-08-07T20:01:59.096Z,101611.28
2022-08-07T20:06:01.044Z,101615.35
2022-08-07T20:10:33.890Z,101620.89
2022-08-07T20:13:57.501Z,101620.65
2022-08-07T20:18:01.282Z,101623.08
2022-08-07T20:21:42.009Z,101622.58
2022-08-07T20:25:12.802Z,101618.21
2022-08-07T20:29:10.242Z,101616.02
2022-08-07T20:32:40.422Z,101616.02
2022-08-07T20:36:03.403Z,101615.42
2022-08-07T20:40:02.103Z,101619.50
2022-08-07T20:43:27.416Z,101617.92
2022-08-07T20:47:04.332Z,101617.15
2022-08-07T20:50:48.058Z,101618.27
2022-08-07T20:54:38.435Z,101622.11
2022-08-07T20:58:28.180Z,101627.70
2022-08-07T21:02:08.292Z,101628.64
2022-08-07T21:05:25.763Z,101627.96
2022-08-07T21:09:52.934Z,101625.84
2022-08-07T21:13:10.029Z,101639.71
2022-08-07T21:16:56.274Z,101637.58
2022-08-07T21:20:39.255Z,101634.71
2022-08-07T21:24:55.415Z,101634.62
2022-08-07T21:28:48.568Z,101635.50
2022-08-07T21:32:49.548Z,101634.59
2022-08-07T21:36:40.046Z,101636.28
2022-08-07T21:40:21.810Z,101635.36
2022-08-07T21:44:06.311Z,101630.33
2022-08-07T21:48:03.756Z,101629.66
2022-08-07T21:51:25.006Z,101629.19
2022-08-07T21:55:01.103Z,101627.88
2022-08-07T21:58:50.539Z,101626.55
2022-08-07T22:02:27.821Z,101625.08
2022-08-07T22:05:48.474Z,101623.61
2022-08-07T22:09:16.597Z,101627.32
2022-08-07T22:13:05.879Z,101631.17
2022-08-07T22:16:42.302Z,101631.42
2022-08-07T22:19:49.576Z,101635.23
2022-08-07T22:23:07.499Z,101639.34
2022-08-07T22:26:44.528Z,101640.11
2022-08-07T22:30:19.451Z,101644.00
2022-08-07T22:34:04.385Z,101641.31
2022-08-07T22:37:12.407Z,101639.23
2022-08-07T22:40:46.256Z,101640.02
2022-08-07T22:44:21.828Z,101640.29
2022-08-07T22:47:58.897Z,101637.36
2022-08-07T22:51:53.831Z,101642.30
2022-08-07T22:55:55.278Z,101642.92
2022-08-07T22:59:32.591Z,101651.59
2022-08-07T23:02:40.617Z,101652.41
2022-08-07T23:06:29.049Z,101655.71
2022-08-07T23:10:04.525Z,101649.67
2022-08-07T23:13:49.317Z,101649.34
2022-08-07T23:17:45.190Z,101652.52
2022-08-07T23:21:37.657Z,101650.70
2022-08-07T23:25:20.982Z,101649.31
2022-08-07T23:29:16.658Z,101651.86
2022-08-07T23:34:35.739Z,101647.02
2022-08-07T23:41:15.559Z,101648.35
2022-08-07T23:44:53.209Z,101648.33
2022-08-07T23:48:29.762Z,101643.36
2022-08-07T23:53:05.707Z,101641.67
2022-08-07T23:55:59.685Z,101640.48
